Time;durP1;ratioP1;P1;durP2;ratioP2;P2;SDS_P1;SDS_P2;PMS_P1;PMS_P2;Temp;Humidity;BMP_temperature;BMP_pressure;BME280_temperature;BME280_humidity;BME280_pressure;Samples;Min_cycle;Max_cycle;Signal;HPM_P1;HPM_P2
2023/01/28 00:01:36;;;;;;;11.82;8.48;;;;;;;2.26;100.00;101741.81;5007005;27;20098;-75
2023/01/28 00:04:01;;;;;;;10.52;8.07;;;;;;;2.25;100.00;101740.06;5008330;27;20056;-75
2023/01/28 00:06:27;;;;;;;12.13;8.00;;;;;;;2.25;100.00;101745.25;4994800;27;20223;-75
2023/01/28 00:08:53;;;;;;;9.75;7.60;;;;;;;2.26;100.00;101745.28;5006049;27;20060;-76
2023/01/28 00:11:21;;;;;;;12.52;8.13;;;;;;;2.31;100.00;101745.28;5003768;27;20033;-75
2023/01/28 00:13:50;;;;;;;13.60;8.50;;;;;;;2.29;100.00;101747.03;5000763;27;20135;-76
2023/01/28 00:16:15;;;;;;;10.65;7.88;;;;;;;2.27;100.00;101748.72;4982581;28;20034;-76
2023/01/28 00:18:41;;;;;;;10.80;8.18;;;;;;;2.20;100.00;101728.84;4976804;27;20860;-76
2023/01/28 00:21:09;;;;;;;14.45;9.43;;;;;;;2.28;100.00;101746.16;4998100;27;20038;-76
2023/01/28 00:23:36;;;;;;;12.82;9.48;;;;;;;2.28;100.00;101743.56;4979877;27;20908;-76
2023/01/28 00:26:04;;;;;;;12.88;8.32;;;;;;;2.25;100.00;101734.91;4990433;27;20218;-76
2023/01/28 00:28:30;;;;;;;12.27;8.45;;;;;;;2.18;100.00;101717.56;5014834;27;20140;-76
2023/01/28 00:30:55;;;;;;;11.20;9.52;;;;;;;2.17;100.00;101721.00;4999816;27;20897;-76
2023/01/28 00:33:22;;;;;;;13.30;9.82;;;;;;;2.29;100.00;101736.66;5010041;27;20029;-76
2023/01/28 00:35:47;;;;;;;11.85;9.00;;;;;;;2.26;100.00;101734.03;5022663;27;20025;-76
2023/01/28 00:38:13;;;;;;;16.45;10.75;;;;;;;2.16;100.00;101714.13;4996522;27;20033;-76
2023/01/28 00:40:38;;;;;;;17.02;11.32;;;;;;;2.23;100.00;101718.47;5003746;27;20203;-76
2023/01/28 00:43:04;;;;;;;13.00;10.48;;;;;;;2.23;100.00;101718.47;4994476;27;20034;-76
2023/01/28 00:45:29;;;;;;;14.20;10.32;;;;;;;2.23;100.00;101726.25;4995159;27;20063;-75
2023/01/28 00:47:54;;;;;;;13.85;10.27;;;;;;;2.24;100.00;101723.66;5002073;27;20014;-76
2023/01/28 00:50:20;;;;;;;15.70;10.63;;;;;;;2.23;100.00;101726.25;4992420;27;20071;-76
2023/01/28 00:52:46;;;;;;;14.82;10.68;;;;;;;2.30;100.00;101733.19;4987925;27;20084;-76
2023/01/28 00:55:12;;;;;;;14.65;10.82;;;;;;;2.18;100.00;101722.75;4972867;27;20307;-76
2023/01/28 00:57:37;;;;;;;14.32;10.63;;;;;;;2.13;100.00;101711.50;4972888;27;20594;-75
2023/01/28 01:00:04;;;;;;;15.38;12.15;;;;;;;2.22;100.00;101734.88;4990797;27;20086;-75
2023/01/28 01:02:29;;;;;;;17.75;12.27;;;;;;;2.21;100.00;101734.00;5043742;27;20260;-73
2023/01/28 01:04:57;;;;;;;15.98;13.07;;;;;;;2.22;100.00;101734.88;5003951;27;20531;-74
2023/01/28 01:07:42;;;;;;;22.25;15.43;;;;;;;2.21;100.00;101735.72;5038529;27;20025;-75
2023/01/28 01:10:11;;;;;;;17.27;13.65;;;;;;;1.97;100.00;101703.63;4990833;27;20134;-75
2023/01/28 01:12:38;;;;;;;17.77;13.23;;;;;;;2.22;100.00;101743.53;5022429;27;20029;-74
2023/01/28 01:15:07;;;;;;;18.00;14.60;;;;;;;2.20;100.00;101736.59;4995399;27;20144;-73
2023/01/28 01:17:33;;;;;;;18.25;14.40;;;;;;;2.18;100.00;101740.91;4995788;27;20865;-74
2023/01/28 01:19:59;;;;;;;20.15;13.65;;;;;;;2.15;100.00;101741.75;4988282;27;20024;-74
2023/01/28 01:22:27;;;;;;;19.25;15.25;;;;;;;2.18;100.00;101752.13;4995247;27;20093;-74
2023/01/28 01:24:52;;;;;;;19.35;15.02;;;;;;;2.14;100.00;101752.97;4993600;27;20025;-74
2023/01/28 01:27:18;;;;;;;25.33;16.48;;;;;;;2.15;100.00;101748.66;4994542;27;20862;-74
2023/01/28 01:29:43;;;;;;;20.00;15.52;;;;;;;2.12;100.00;101746.06;5005155;27;20028;-73
2023/01/28 01:32:09;;;;;;;26.90;16.95;;;;;;;2.11;100.00;101752.97;5015828;27;21508;-73
2023/01/28 01:34:34;;;;;;;22.05;16.00;;;;;;;2.08;100.00;101747.75;5008571;27;20076;-73
2023/01/28 01:36:59;;;;;;;20.08;16.05;;;;;;;2.09;100.00;101752.09;4993549;27;20895;-75
2023/01/28 01:39:25;;;;;;;20.98;14.75;;;;;;;2.01;100.00;101752.03;4994989;27;20024;-76
2023/01/28 01:41:50;;;;;;;19.13;14.18;;;;;;;2.03;100.00;101749.44;4973999;27;20036;-75
2023/01/28 01:44:47;;;;;;;21.52;14.70;;;;;;;2.13;100.00;101771.13;4991867;27;20968;-75
2023/01/28 01:47:12;;;;;;;19.17;14.45;;;;;;;2.12;100.00;101764.19;4989489;27;20025;-75
2023/01/28 01:49:38;;;;;;;18.63;13.88;;;;;;;2.11;100.00;101758.16;4993538;27;20828;-76
2023/01/28 01:52:09;;;;;;;17.75;14.23;;;;;;;2.13;100.00;101760.75;4994011;27;20191;-76
2023/01/28 01:54:37;;;;;;;18.60;13.45;;;;;;;1.72;100.00;101686.22;4975551;28;20944;-76
2023/01/28 01:57:04;;;;;;;20.60;14.52;;;;;;;2.08;100.00;101757.25;4985226;27;20032;-76
2023/01/28 01:59:32;;;;;;;16.10;12.75;;;;;;;2.06;100.00;101750.34;4983667;27;20070;-75
2023/01/28 02:02:00;;;;;;;16.73;12.88;;;;;;;2.03;100.00;101755.50;4978852;27;20028;-76
2023/01/28 02:04:28;;;;;;;17.33;13.73;;;;;;;2.12;100.00;101769.38;4994934;27;20101;-76
2023/01/28 02:06:54;;;;;;;19.77;13.88;;;;;;;2.10;100.00;101756.41;4999177;27;20025;-76
2023/01/28 02:09:29;;;;;;;18.02;13.57;;;;;;;2.12;100.00;101753.84;4990150;27;20063;-76
2023/01/28 02:11:58;;;;;;;23.23;15.88;;;;;;;2.10;100.00;101750.34;4991540;28;20101;-75
2023/01/28 02:14:25;;;;;;;20.65;15.27;;;;;;;2.12;100.00;101756.44;5002237;27;20168;-76
2023/01/28 02:16:51;;;;;;;22.05;15.10;;;;;;;2.01;100.00;101744.25;4979369;27;21046;-75
2023/01/28 02:19:18;;;;;;;18.92;14.80;;;;;;;1.85;100.00;101723.44;4982228;27;20025;-80
2023/01/28 02:21:53;;;;;;;21.17;15.18;;;;;;;2.09;100.00;101769.38;5002558;28;20114;-81
2023/01/28 02:24:37;;;;;;;20.15;15.93;;;;;;;2.05;100.00;101771.94;5000302;27;20034;-80
2023/01/28 02:27:34;;;;;;;20.00;15.00;;;;;;;2.04;100.00;101766.75;5036567;27;20036;-81
2023/01/28 02:30:21;;;;;;;22.42;15.45;;;;;;;1.96;100.00;101758.91;5033004;27;20086;-80
2023/01/28 02:33:15;;;;;;;20.92;14.70;;;;;;;2.03;100.00;101771.03;5057824;28;20033;-80
2023/01/28 02:35:47;;;;;;;19.42;14.68;;;;;;;1.92;100.00;101746.81;5009471;28;20045;-81
2023/01/28 02:38:36;;;;;;;23.58;15.95;;;;;;;2.03;100.00;101765.00;5022881;27;20104;-80
2023/01/28 02:41:09;;;;;;;24.92;17.02;;;;;;;1.92;100.00;101749.41;5019436;27;20487;-81
2023/01/28 02:43:46;;;;;;;23.30;15.73;;;;;;;1.99;100.00;101763.25;5015700;28;20029;-81
2023/01/28 02:49:19;;;;;;;19.30;14.75;;;;;;;1.81;100.00;101740.69;5024816;27;20035;-77
2023/01/28 02:51:44;;;;;;;21.80;15.00;;;;;;;1.99;100.00;101773.63;4992577;27;20097;-78
2023/01/28 02:54:13;;;;;;;19.45;14.57;;;;;;;1.94;100.00;101760.63;4997413;27;20810;-78
2023/01/28 02:57:09;;;;;;;19.88;14.48;;;;;;;1.96;100.00;101760.66;4975832;28;20799;-77
2023/01/28 02:59:40;;;;;;;19.77;15.43;;;;;;;1.96;100.00;101763.25;4983584;27;20074;-79
2023/01/28 03:02:27;;;;;;;21.90;16.45;;;;;;;1.97;100.00;101771.00;5035798;27;20031;-80
2023/01/28 03:05:02;;;;;;;23.10;16.48;;;;;;;1.96;100.00;101764.09;5009852;27;20037;-79
2023/01/28 03:07:29;;;;;;;21.48;16.05;;;;;;;1.95;100.00;101775.34;5014730;27;20090;-80
2023/01/28 03:09:57;;;;;;;22.80;15.45;;;;;;;1.89;100.00;101757.13;5041787;27;20133;-79
2023/01/28 03:38:22;;;;;;;21.50;14.75;;;;;;;1.86;100.00;101783.03;5012040;27;20041;-75
2023/01/28 03:40:48;;;;;;;19.60;13.90;;;;;;;1.61;100.00;101744.84;5012571;27;20035;-75
2023/01/28 03:43:13;;;;;;;18.92;14.25;;;;;;;1.84;100.00;101773.50;4996235;27;20038;-74
2023/01/28 03:45:39;;;;;;;20.23;14.18;;;;;;;1.86;100.00;101785.59;5000117;27;20051;-75
2023/01/28 03:48:04;;;;;;;18.85;14.25;;;;;;;1.83;100.00;101783.00;4991070;27;20037;-76
2023/01/28 03:50:30;;;;;;;20.25;14.88;;;;;;;1.84;100.00;101789.06;4999596;27;20036;-77
2023/01/28 03:53:11;;;;;;;20.48;14.93;;;;;;;1.82;100.00;101783.00;4991659;27;20029;-77
2023/01/28 03:55:36;;;;;;;24.13;15.25;;;;;;;1.61;100.00;101760.38;5002163;27;20040;-76
2023/01/28 03:58:04;;;;;;;18.23;13.82;;;;;;;1.77;100.00;101788.13;5001802;27;20029;-75
2023/01/28 04:00:31;;;;;;;17.80;14.25;;;;;;;1.81;100.00;101796.81;4977624;27;20366;-76
2023/01/28 04:02:57;;;;;;;17.85;14.38;;;;;;;1.53;100.00;101744.78;4996516;27;20025;-75
2023/01/28 04:05:23;;;;;;;19.55;14.27;;;;;;;1.49;100.00;101750.78;4993135;27;20132;-76
2023/01/28 04:07:50;;;;;;;20.75;14.98;;;;;;;1.66;100.00;101779.41;4993187;27;20864;-75
2023/01/28 04:10:15;;;;;;;17.60;14.30;;;;;;;1.72;100.00;101783.78;4995590;27;20041;-73
2023/01/28 04:12:41;;;;;;;19.30;13.80;;;;;;;1.76;100.00;101795.91;5000797;27;20080;-76
2023/01/28 04:15:14;;;;;;;17.52;13.93;;;;;;;1.66;100.00;101769.03;4994426;27;20140;-75
2023/01/28 04:17:43;;;;;;;19.50;13.13;;;;;;;1.70;100.00;101790.66;5017652;27;20369;-75
2023/01/28 04:20:09;;;;;;;18.20;13.18;;;;;;;1.77;100.00;101802.81;4975118;27;20029;-73
2023/01/28 04:22:35;;;;;;;18.70;13.88;;;;;;;1.79;100.00;101807.13;5006284;27;20861;-79
2023/01/28 04:25:00;;;;;;;18.63;13.43;;;;;;;1.61;100.00;101775.91;4994316;27;20022;-79
2023/01/28 04:27:26;;;;;;;19.83;14.50;;;;;;;1.66;100.00;101794.94;4996090;27;20025;-78
2023/01/28 04:29:51;;;;;;;19.15;13.75;;;;;;;1.56;100.00;101787.94;5012671;27;20033;-79
2023/01/28 04:32:16;;;;;;;16.90;12.52;;;;;;;1.64;100.00;101790.63;5005608;27;20026;-78
2023/01/28 04:34:42;;;;;;;20.33;14.45;;;;;;;1.66;100.00;101810.50;5007230;27;20924;-78
2023/01/28 04:37:08;;;;;;;19.85;15.80;;;;;;;1.66;100.00;101815.66;5001315;27;20025;-78
2023/01/28 04:39:33;;;;;;;23.52;15.40;;;;;;;1.58;100.00;101796.63;5030694;27;20029;-78
2023/01/28 04:41:58;;;;;;;23.05;15.35;;;;;;;1.57;100.00;101805.22;4992016;27;20044;-79
2023/01/28 04:44:24;;;;;;;18.83;14.20;;;;;;;1.59;100.00;101813.88;4995975;27;20025;-76
2023/01/28 04:46:49;;;;;;;16.02;12.65;;;;;;;1.55;100.00;101812.13;4998043;27;20040;-77
2023/01/28 04:49:15;;;;;;;13.60;11.65;;;;;;;1.56;100.00;101808.66;5005269;27;21061;-77
2023/01/28 04:51:40;;;;;;;15.70;11.40;;;;;;;1.61;100.00;101822.53;5004642;27;20900;-75
2023/01/28 04:54:06;;;;;;;18.67;12.52;;;;;;;1.42;100.00;101798.19;4977567;28;20140;-76
2023/01/28 04:56:31;;;;;;;16.33;11.80;;;;;;;1.55;100.00;101817.31;4990506;27;20082;-72
2023/01/28 04:58:57;;;;;;;18.00;11.75;;;;;;;1.60;100.00;101825.09;4997624;27;20082;-72
2023/01/28 05:01:23;;;;;;;16.42;11.73;;;;;;;1.51;100.00;101810.38;4992080;27;20066;-72
2023/01/28 05:03:49;;;;;;;18.63;11.90;;;;;;;1.54;100.00;101805.22;4996708;27;20033;-72
2023/01/28 05:06:15;;;;;;;14.60;11.35;;;;;;;1.54;100.00;101810.38;4973970;28;20033;-73
2023/01/28 05:08:40;;;;;;;16.20;12.02;;;;;;;1.45;100.00;101798.22;5001511;27;20030;-73
2023/01/28 05:11:05;;;;;;;16.80;11.98;;;;;;;1.50;100.00;101806.91;4998684;27;20997;-73
2023/01/28 05:13:31;;;;;;;19.13;12.68;;;;;;;1.43;100.00;101796.47;5009412;27;20198;-73
2023/01/28 05:15:56;;;;;;;17.55;11.98;;;;;;;1.48;100.00;101811.22;5002988;27;20045;-72
2023/01/28 05:18:22;;;;;;;18.60;13.60;;;;;;;1.44;100.00;101808.56;4997186;27;20021;-73
2023/01/28 05:20:47;;;;;;;17.25;11.68;;;;;;;1.46;100.00;101812.03;4998664;27;20025;-73
2023/01/28 05:23:13;;;;;;;15.68;12.27;;;;;;;1.47;100.00;101813.78;4991680;27;20025;-72
2023/01/28 05:25:38;;;;;;;18.02;12.45;;;;;;;1.44;100.00;101818.94;4981295;28;20981;-73
2023/01/28 05:28:04;;;;;;;19.33;12.82;;;;;;;1.45;100.00;101823.25;4999688;27;20069;-72
2023/01/28 05:30:29;;;;;;;17.77;12.82;;;;;;;1.36;100.00;101821.44;4999425;27;20198;-73
2023/01/28 05:32:55;;;;;;;18.58;12.70;;;;;;;1.46;100.00;101835.34;4970680;27;20856;-73
2023/01/28 05:35:21;;;;;;;17.75;13.40;;;;;;;1.44;100.00;101840.50;4979121;27;20101;-72
2023/01/28 05:37:47;;;;;;;16.65;12.43;;;;;;;1.32;100.00;101824.00;5022076;27;20947;-72
2023/01/28 05:40:12;;;;;;;14.82;10.88;;;;;;;1.31;100.00;101830.88;4988451;27;20061;-72
2023/01/28 05:42:38;;;;;;;17.05;11.85;;;;;;;1.34;100.00;101840.41;4993149;27;20033;-73
2023/01/28 05:45:03;;;;;;;18.50;12.93;;;;;;;1.31;100.00;101843.84;4994745;27;20892;-72
2023/01/28 05:47:29;;;;;;;15.00;10.57;;;;;;;1.30;100.00;101841.22;4991198;27;20951;-73
2023/01/28 05:49:54;;;;;;;18.38;11.88;;;;;;;1.30;100.00;101851.56;5002466;27;20912;-73
2023/01/28 05:52:20;;;;;;;15.02;11.45;;;;;;;0.91;100.00;101793.31;4991300;27;20083;-72
2023/01/28 05:54:45;;;;;;;15.13;11.18;;;;;;;1.30;100.00;101849.84;4987931;27;20808;-73
2023/01/28 05:57:10;;;;;;;14.52;11.38;;;;;;;1.28;100.00;101861.06;4995944;27;20025;-73
2023/01/28 05:59:36;;;;;;;17.52;12.30;;;;;;;1.22;100.00;101854.06;4994937;27;20963;-73
2023/01/28 06:02:01;;;;;;;15.75;11.27;;;;;;;1.27;100.00;101851.53;4976877;27;20032;-73
2023/01/28 06:04:27;;;;;;;15.88;11.32;;;;;;;1.26;100.00;101854.97;4987528;27;20033;-73
2023/01/28 06:06:52;;;;;;;20.27;12.25;;;;;;;1.16;100.00;101843.66;4996015;27;20053;-72
2023/01/28 06:09:17;;;;;;;16.73;11.10;;;;;;;1.15;100.00;101856.59;4993418;27;20033;-72
2023/01/28 06:11:44;;;;;;;19.52;12.15;;;;;;;1.09;100.00;101851.31;4994091;27;20159;-73
2023/01/28 06:14:10;;;;;;;18.30;11.60;;;;;;;1.14;100.00;101860.03;4974902;27;20087;-78
2023/01/28 06:16:35;;;;;;;15.25;11.40;;;;;;;1.10;100.00;101859.13;4990399;27;20880;-80
2023/01/28 06:19:01;;;;;;;16.85;11.98;;;;;;;0.98;100.00;101844.28;5000644;27;20089;-73
2023/01/28 06:21:26;;;;;;;15.52;11.40;;;;;;;1.01;100.00;101849.50;5006880;27;20025;-73
2023/01/28 06:23:52;;;;;;;16.00;10.88;;;;;;;1.00;100.00;101852.97;4993284;27;20047;-72
2023/01/28 06:26:17;;;;;;;18.27;12.55;;;;;;;0.87;100.00;101832.97;5010860;27;20145;-72
2023/01/28 06:28:43;;;;;;;19.33;11.93;;;;;;;0.97;100.00;101845.16;5035472;27;20194;-72
2023/01/28 06:31:08;;;;;;;15.93;11.48;;;;;;;1.05;100.00;101860.75;5012274;27;20090;-73
2023/01/28 06:33:34;;;;;;;16.42;11.10;;;;;;;0.62;100.00;101799.88;5019572;27;20096;-76
2023/01/28 06:36:05;;;;;;;18.48;11.48;;;;;;;0.89;100.00;101859.72;5000198;27;20940;-76
2023/01/28 06:38:31;;;;;;;16.15;11.30;;;;;;;0.91;100.00;101877.84;4996509;27;20048;-75
2023/01/28 06:40:57;;;;;;;17.42;11.75;;;;;;;0.75;100.00;101860.38;4991040;27;20045;-76
2023/01/28 06:43:26;;;;;;;19.83;12.15;;;;;;;0.79;100.00;101864.75;4998531;27;20105;-76
2023/01/28 06:45:56;;;;;;;18.45;12.07;;;;;;;0.92;100.00;101885.63;4974161;28;20088;-76
2023/01/28 06:48:22;;;;;;;16.55;11.60;;;;;;;0.84;100.00;101866.56;4997040;27;20026;-75
2023/01/28 06:50:48;;;;;;;18.48;12.23;;;;;;;0.76;100.00;101868.16;4994184;27;20029;-76
2023/01/28 06:53:14;;;;;;;17.98;12.27;;;;;;;0.88;100.00;101888.16;4993292;27;20036;-75
2023/01/28 06:55:39;;;;;;;19.77;12.27;;;;;;;0.85;100.00;101893.28;4978434;28;20040;-75
2023/01/28 06:58:05;;;;;;;18.45;12.65;;;;;;;0.75;100.00;101881.94;5002073;27;20048;-75
2023/01/28 07:00:30;;;;;;;17.58;11.32;;;;;;;0.82;100.00;101888.06;4998548;27;20029;-75
2023/01/28 07:02:56;;;;;;;18.83;13.00;;;;;;;0.77;100.00;101875.09;5009071;27;20097;-75
2023/01/28 07:05:21;;;;;;;21.88;13.82;;;;;;;0.80;100.00;101874.25;4978322;27;20043;-75
2023/01/28 07:07:47;;;;;;;19.65;13.20;;;;;;;0.64;100.00;101865.44;5031778;27;20091;-75
2023/01/28 07:10:12;;;;;;;17.95;12.43;;;;;;;0.74;100.00;101879.34;5024856;27;20033;-76
2023/01/28 07:12:38;;;;;;;19.98;13.32;;;;;;;0.77;100.00;101885.44;4996678;27;20026;-71
2023/01/28 07:15:04;;;;;;;19.30;13.00;;;;;;;0.77;100.00;101885.44;4999355;27;20028;-78
2023/01/28 07:17:29;;;;;;;18.38;12.82;;;;;;;0.71;100.00;101869.81;4987659;27;20967;-77
2023/01/28 07:19:55;;;;;;;22.55;13.45;;;;;;;0.61;100.00;101867.09;5013897;27;20884;-75
2023/01/28 07:22:20;;;;;;;19.17;13.18;;;;;;;0.55;100.00;101862.69;4999415;27;20145;-71
2023/01/28 07:24:46;;;;;;;16.42;11.82;;;;;;;0.72;100.00;101881.91;5010031;27;20029;-73
2023/01/28 07:27:11;;;;;;;19.70;13.35;;;;;;;0.73;100.00;101878.47;4978082;28;20029;-73
2023/01/28 07:29:36;;;;;;;20.85;13.60;;;;;;;0.39;100.00;101825.44;4987598;27;20033;-72
2023/01/28 07:32:03;;;;;;;16.77;12.75;;;;;;;0.85;100.00;101886.38;5035298;27;20061;-73
2023/01/28 07:34:29;;;;;;;21.30;14.20;;;;;;;0.84;100.00;101887.25;5017041;27;20086;-73
2023/01/28 07:36:54;;;;;;;18.05;12.80;;;;;;;0.69;100.00;101866.34;4978521;27;20019;-72
2023/01/28 07:39:20;;;;;;;20.23;13.77;;;;;;;0.70;100.00;101868.09;4974740;28;21007;-72
2023/01/28 07:41:46;;;;;;;21.80;14.50;;;;;;;0.74;100.00;101869.88;4989402;27;20090;-72
2023/01/28 07:44:11;;;;;;;17.20;12.57;;;;;;;0.79;100.00;101872.50;4989009;27;20029;-72
2023/01/28 07:46:37;;;;;;;19.67;13.63;;;;;;;0.78;100.00;101875.94;4982726;28;20032;-73
2023/01/28 07:49:02;;;;;;;18.63;13.23;;;;;;;0.77;100.00;101877.69;4989954;27;20029;-72
2023/01/28 07:51:28;;;;;;;22.20;15.07;;;;;;;0.60;100.00;101849.84;4998401;27;20025;-72
2023/01/28 07:53:53;;;;;;;21.70;14.02;;;;;;;0.80;100.00;101885.47;4991490;27;20033;-72
2023/01/28 07:56:19;;;;;;;18.63;13.38;;;;;;;0.79;100.00;101909.59;4989625;27;20791;-73
2023/01/28 07:58:44;;;;;;;19.88;13.77;;;;;;;0.72;100.00;101878.44;4988324;27;20025;-72
2023/01/28 08:01:09;;;;;;;22.08;13.25;;;;;;;0.80;100.00;101895.81;4990074;27;20882;-72
2023/01/28 08:03:35;;;;;;;20.40;13.43;;;;;;;0.77;100.00;101894.91;5006480;27;20033;-72
2023/01/28 08:06:00;;;;;;;19.17;13.35;;;;;;;0.85;100.00;101914.84;4993531;27;20033;-72
2023/01/28 08:08:26;;;;;;;17.80;12.98;;;;;;;0.87;100.00;101923.50;4999848;27;20057;-72
2023/01/28 08:10:52;;;;;;;20.45;14.68;;;;;;;0.93;100.00;101921.00;4999880;27;20855;-72
2023/01/28 08:13:18;;;;;;;22.40;15.05;;;;;;;0.95;100.00;101921.88;5019661;27;20060;-73
2023/01/28 08:15:43;;;;;;;20.65;13.25;;;;;;;0.90;100.00;101915.78;4985715;27;20029;-73
2023/01/28 08:18:12;;;;;;;21.10;13.35;;;;;;;0.95;100.00;101911.53;4981332;27;20440;-73
2023/01/28 08:20:38;;;;;;;18.38;13.48;;;;;;;0.97;100.00;101909.84;5015225;27;20078;-72
2023/01/28 08:23:16;;;;;;;21.42;14.80;;;;;;;1.04;100.00;101918.56;4982608;27;20870;-73
2023/01/28 08:25:42;;;;;;;22.13;14.43;;;;;;;1.01;100.00;101910.75;5014002;27;20033;-73
2023/01/28 08:28:08;;;;;;;18.85;13.32;;;;;;;1.03;100.00;101917.69;5007698;27;20132;-72
2023/01/28 08:30:34;;;;;;;17.73;13.30;;;;;;;1.01;100.00;101915.94;4980417;28;20954;-73
2023/01/28 08:33:00;;;;;;;20.00;13.52;;;;;;;1.10;100.00;101941.94;4979638;27;20186;-73
2023/01/28 08:35:26;;;;;;;21.40;13.52;;;;;;;1.15;100.00;101934.22;4995452;27;20033;-73
2023/01/28 08:37:52;;;;;;;19.13;13.70;;;;;;;1.20;100.00;101937.72;4976907;27;20025;-72
2023/01/28 08:40:18;;;;;;;19.25;13.10;;;;;;;1.18;100.00;101936.84;5000527;27;20173;-73
2023/01/28 08:42:48;;;;;;;21.58;13.90;;;;;;;1.11;100.00;101911.75;4987341;27;20031;-73
2023/01/28 08:45:14;;;;;;;17.65;12.82;;;;;;;0.76;100.00;101857.81;5008874;27;20522;-74
2023/01/28 08:47:57;;;;;;;20.98;14.20;;;;;;;1.45;100.00;101950.97;5004125;27;20041;-73
2023/01/28 08:50:24;;;;;;;23.17;14.57;;;;;;;1.44;100.00;101941.50;5019189;27;20113;-74
2023/01/28 08:52:55;;;;;;;19.15;13.00;;;;;;;1.56;100.00;101964.06;4981636;27;20835;-73
2023/01/28 08:55:20;;;;;;;19.42;13.55;;;;;;;1.16;100.00;101897.13;4996582;27;20089;-73
2023/01/28 08:57:46;;;;;;;17.63;13.40;;;;;;;1.54;100.00;101951.13;5010862;27;20014;-72
2023/01/28 09:00:12;;;;;;;19.90;13.32;;;;;;;1.55;100.00;101973.56;4997690;27;20952;-72
2023/01/28 09:02:37;;;;;;;23.33;13.40;;;;;;;1.51;100.00;101960.56;5001419;27;20141;-72
2023/01/28 09:05:04;;;;;;;20.42;13.25;;;;;;;1.38;100.00;101948.31;4996845;27;20883;-73
2023/01/28 09:07:30;;;;;;;16.63;13.52;;;;;;;1.56;100.00;101971.84;4992751;27;20915;-72
2023/01/28 09:09:55;;;;;;;21.15;14.38;;;;;;;1.45;100.00;101976.03;4993448;27;20025;-72
2023/01/28 09:12:20;;;;;;;18.73;13.50;;;;;;;1.32;100.00;101961.22;4997254;27;20903;-73
2023/01/28 09:14:46;;;;;;;19.48;13.57;;;;;;;1.42;100.00;101981.19;4981876;27;20039;-73
2023/01/28 09:17:11;;;;;;;20.52;14.57;;;;;;;1.41;100.00;101992.38;5002456;27;20155;-72
2023/01/28 09:19:37;;;;;;;17.95;13.40;;;;;;;1.33;100.00;101981.91;5000341;27;20876;-73
2023/01/28 09:22:03;;;;;;;21.63;13.73;;;;;;;1.34;100.00;101991.44;5000573;27;20036;-72
2023/01/28 09:24:29;;;;;;;18.05;12.75;;;;;;;1.31;100.00;101991.41;4977320;28;20033;-73
2023/01/28 09:26:54;;;;;;;19.70;13.63;;;;;;;1.40;100.00;101994.09;4991003;27;20025;-73
2023/01/28 09:29:19;;;;;;;20.33;14.95;;;;;;;1.42;100.00;101997.56;4973473;27;20133;-72
2023/01/28 09:31:45;;;;;;;17.77;12.65;;;;;;;1.43;100.00;101995.84;4983370;28;20021;-73
2023/01/28 09:34:10;;;;;;;21.45;15.05;;;;;;;0.94;100.00;101922.75;4978615;28;20165;-73
2023/01/28 09:36:36;;;;;;;24.17;13.52;;;;;;;1.47;100.00;102008.00;4973855;27;20140;-71
2023/01/28 09:39:02;;;;;;;19.55;13.27;;;;;;;1.42;100.00;102001.91;4988322;27;20025;-72
2023/01/28 09:41:36;;;;;;;18.75;14.05;;;;;;;1.20;100.00;101964.50;4987829;28;20030;-72
2023/01/28 09:44:22;;;;;;;17.80;12.93;;;;;;;1.44;100.00;101988.13;5005820;27;20056;-73
2023/01/28 09:46:48;;;;;;;20.17;13.25;;;;;;;1.60;100.00;102009.00;5004139;27;20113;-72
2023/01/28 09:49:26;;;;;;;25.27;13.95;;;;;;;1.66;100.00;102015.13;5007063;28;20061;-73
2023/01/28 09:51:54;;;;;;;16.60;11.95;;;;;;;1.73;100.00;102014.34;5025718;27;20869;-72
2023/01/28 09:54:34;;;;;;;16.90;12.57;;;;;;;1.71;100.00;101995.34;4971621;28;20064;-72
2023/01/28 09:57:04;;;;;;;17.75;12.18;;;;;;;1.78;100.00;102007.53;4975960;28;20092;-72
2023/01/28 09:59:33;;;;;;;17.20;11.98;;;;;;;1.80;100.00;102005.81;4979244;28;20067;-74
2023/01/28 10:02:36;;;;;;;18.85;12.43;;;;;;;1.80;100.00;102025.66;4965082;28;20417;-71
2023/01/28 10:05:29;;;;;;;19.27;12.27;;;;;;;1.77;100.00;102016.13;4987148;27;20025;-72
2023/01/28 10:08:02;;;;;;;16.40;11.07;;;;;;;1.82;100.00;102014.47;4999641;27;20150;-72
2023/01/28 10:10:38;;;;;;;19.13;12.10;;;;;;;1.54;100.00;101968.38;4988820;27;20037;-72
2023/01/28 10:13:21;;;;;;;14.82;10.93;;;;;;;1.93;100.00;102027.53;4990146;27;20143;-72
2023/01/28 10:16:15;;;;;;;15.35;10.85;;;;;;;1.89;100.00;102023.19;4988875;27;20026;-72
2023/01/28 10:18:57;;;;;;;18.02;10.70;;;;;;;1.83;100.00;102020.50;4979500;28;20090;-71
2023/01/28 10:21:31;;;;;;;14.85;10.15;;;;;;;1.81;100.00;102023.09;4974938;28;20082;-74
2023/01/28 10:24:22;;;;;;;16.50;9.95;;;;;;;1.81;100.00;102017.91;4998472;27;20030;-72
2023/01/28 10:26:48;;;;;;;14.70;9.93;;;;;;;1.89;100.00;102007.66;5071142;27;20027;-73
2023/01/28 10:29:17;;;;;;;12.02;9.63;;;;;;;1.82;100.00;102004.13;5004037;28;20187;-71
2023/01/28 10:31:58;;;;;;;13.07;9.35;;;;;;;1.84;100.00;102023.13;4990873;27;20025;-72
2023/01/28 10:34:24;;;;;;;15.90;10.18;;;;;;;1.75;100.00;102004.91;5006921;27;20029;-71
2023/01/28 10:36:50;;;;;;;13.85;9.45;;;;;;;1.67;100.00;101997.88;4976242;27;20091;-72
2023/01/28 10:39:17;;;;;;;12.70;8.60;;;;;;;1.73;100.00;102000.53;4997018;27;20025;-72
2023/01/28 10:41:42;;;;;;;11.68;8.93;;;;;;;1.72;100.00;102011.75;5004423;27;20033;-74
2023/01/28 10:44:29;;;;;;;11.45;9.00;;;;;;;1.73;100.00;102019.53;4997627;27;20079;-71
2023/01/28 10:46:58;;;;;;;15.73;10.70;;;;;;;1.84;100.00;102011.88;4996688;28;20049;-73
2023/01/28 10:49:29;;;;;;;15.43;9.32;;;;;;;1.68;100.00;101984.94;5004978;27;20032;-72
2023/01/28 10:51:54;;;;;;;14.05;9.05;;;;;;;1.89;100.00;102005.91;4981535;27;20026;-72
2023/01/28 10:54:26;;;;;;;9.77;6.97;;;;;;;2.00;100.00;102006.00;4999326;27;20137;-72
2023/01/28 10:56:54;;;;;;;13.15;8.15;;;;;;;1.82;100.00;102004.13;5001674;27;20407;-73
2023/01/28 10:59:40;;;;;;;11.77;8.02;;;;;;;1.91;100.00;102014.56;5001185;28;20029;-73
2023/01/28 11:02:31;;;;;;;10.52;7.85;;;;;;;2.06;100.00;102019.06;4979157;27;20031;-72
2023/01/28 11:05:05;;;;;;;10.57;7.47;;;;;;;2.21;100.00;102024.38;4974889;27;20025;-71
2023/01/28 11:07:31;;;;;;;11.70;7.75;;;;;;;1.96;100.00;101976.59;4998626;27;20034;-72
2023/01/28 11:09:58;;;;;;;9.75;7.95;;;;;;;2.31;100.00;102030.53;4997449;27;20195;-71
2023/01/28 11:12:25;;;;;;;10.45;7.68;;;;;;;2.11;100.00;102032.94;5008761;27;20029;-73
2023/01/28 11:14:53;;;;;;;13.57;8.70;;;;;;;2.10;100.00;102038.09;4989690;28;20090;-73
2023/01/28 11:17:21;;;;;;;12.73;7.45;;;;;;;1.92;100.00;102037.06;5014581;27;20039;-71
2023/01/28 11:19:47;;;;;;;11.90;8.23;;;;;;;1.87;100.00;102041.31;4987595;27;20025;-72
2023/01/28 11:22:20;;;;;;;11.25;7.93;;;;;;;1.65;100.00;102009.94;4993444;27;20060;-72
2023/01/28 11:24:45;;;;;;;10.35;7.85;;;;;;;1.60;100.00;102022.84;4997328;27;20029;-72
2023/01/28 11:27:15;;;;;;;12.02;8.75;;;;;;;1.44;100.00;102008.81;5003897;27;20990;-72
2023/01/28 11:29:41;;;;;;;11.98;8.82;;;;;;;1.47;100.00;102015.75;4983015;27;20036;-72
2023/01/28 11:32:17;;;;;;;14.18;8.80;;;;;;;1.43;100.00;102001.91;5003147;27;20022;-72
2023/01/28 11:34:49;;;;;;;10.95;8.32;;;;;;;1.63;100.00;102014.22;4979476;28;20034;-72
2023/01/28 11:37:17;;;;;;;13.00;8.60;;;;;;;1.80;100.00;102021.34;4977175;28;20044;-72
2023/01/28 11:39:43;;;;;;;13.20;8.82;;;;;;;1.81;100.00;102012.72;5002264;27;20025;-72
2023/01/28 11:42:17;;;;;;;13.75;9.13;;;;;;;1.76;100.00;101983.28;4995024;27;20753;-73
2023/01/28 11:44:43;;;;;;;14.18;9.02;;;;;;;1.93;100.00;102014.56;4994339;27;20028;-71
2023/01/28 11:47:29;;;;;;;13.45;8.57;;;;;;;1.90;100.00;102011.94;4979016;27;20029;-73